MAPA DE AEROPUERTO

INFORMACIÓN METAR y TAF


Deprecated: The each() function is deprecated. This message will be suppressed on further calls in /home/customer/www/clickair-va.com/public_html/VAM/vam/helpers/get_metar.php on line 20
METAR FOR LEVC
ADDS - METARS form results

(1322 UTC 13 January 2023)
Data provider http://aviationweather.gov/metar/data/
 
METAR text: LEVC 131300Z 20004KT 150V270 CAVOK 17/02 Q1026 NOSIG
Conditions at: LEVC (VALENCIA (CIV/MI, ES) observed 1300 UTC 13 January 2023
Temperature: 17.0°C (63°F)
Dewpoint: 2.0°C (36°F) [RH = 36%]
Pressure (altimeter): 30.30 inches Hg (1026.0 mb)
Winds: from the SSW (200 degrees) at 5 MPH (4 knots; 2.1 m/s)
Visibility: 6 or more miles (10+ km)
Ceiling: ceiling and visibility are OK
Clouds: unknown
Weather: no significant weather observed at this time

METAR text: LEVC 131230Z VRB02KT CAVOK 17/02 Q1026 NOSIG
Conditions at: LEVC (VALENCIA (CIV/MI, ES) observed 1230 UTC 13 January 2023
Temperature: 17.0°C (63°F)
Dewpoint: 2.0°C (36°F) [RH = 36%]
Pressure (altimeter): 30.30 inches Hg (1026.0 mb)
Winds: variable direction winds at 2 MPH (2 knots; 1.0 m/s)
Visibility: 6 or more miles (10+ km)
Ceiling: ceiling and visibility are OK
Clouds: unknown
Weather: no significant weather observed at this time

Forecast for: LEVC (VALENCIA (CIV/MI, ES)
Text: TAF LEVC 131100Z 1312/1412 27006KT CAVOK TX20/1312Z TN05/1406Z
Forecast period: 1200 UTC 13 January 2023 to 1200 UTC 14 January 2023
Forecast type: FROM: standard forecast or significant change
Winds: from the W (270 degrees) at 7 MPH (6 knots; 3.1 m/s)
Visibility: 6 or more miles (10+ km)
Ceiling: unknown
Clouds: missing
Weather: no significant weather forecast for this period
Text: BECMG 1312/1314 17007KT
Forecast period: 1200 to 1800 UTC 13 January 2023
Forecast type: BECOMING: Conditions expected to become as follows by 1400 UTC 13 January 2023
Winds: from the S (170 degrees) at 8 MPH (7 knots; 3.6 m/s)
Visibility: 6 or more miles (10+ km)
Ceiling: unknown
Clouds: missing
Weather: no significant weather forecast for this period
Text: BECMG 1318/1320 28006KT
Forecast period: 1800 UTC 13 January 2023 to 1200 UTC 14 January 2023
Forecast type: BECOMING: Conditions expected to become as follows by 2000 UTC 13 January 2023
Winds: from the W (280 degrees) at 7 MPH (6 knots; 3.1 m/s)
Visibility: 6 or more miles (10+ km)
Ceiling: unknown
Clouds: missing
Weather: no significant weather forecast for this period